Time;durP1;ratioP1;P1;durP2;ratioP2;P2;SDS_P1;SDS_P2;PMS_P1;PMS_P2;Temp;Humidity;BMP_temperature;BMP_pressure;BME280_temperature;BME280_humidity;BME280_pressure;Samples;Min_cycle;Max_cycle;Signal;HPM_P1;HPM_P2
2021/07/07 00:01:35;;;;;;;6.57;3.05;;;16.90;99.90;;;;;;5082339;28;20055;-68
2021/07/07 00:04:02;;;;;;;7.35;3.20;;;16.90;99.90;;;;;;5083361;28;20121;-65
2021/07/07 00:06:30;;;;;;;5.50;2.67;;;17.00;99.90;;;;;;5083728;28;20083;-65
2021/07/07 00:08:58;;;;;;;6.72;2.97;;;17.00;99.90;;;;;;5081223;28;20059;-64
2021/07/07 00:11:25;;;;;;;7.63;2.70;;;16.90;99.90;;;;;;5081635;28;20120;-63
2021/07/07 00:13:52;;;;;;;6.55;2.75;;;16.90;99.90;;;;;;5086272;28;20052;-64
2021/07/07 00:16:19;;;;;;;7.38;3.38;;;16.90;99.90;;;;;;5080206;28;20576;-66
2021/07/07 00:18:46;;;;;;;6.25;3.42;;;16.80;99.90;;;;;;5077570;28;20827;-65
2021/07/07 00:21:13;;;;;;;5.63;3.80;;;16.80;99.90;;;;;;5075705;28;20464;-66
2021/07/07 00:23:40;;;;;;;10.15;5.10;;;16.90;99.90;;;;;;5079117;28;20055;-67
2021/07/07 00:26:09;;;;;;;11.73;4.13;;;16.90;99.90;;;;;;5079370;28;20090;-65
2021/07/07 00:28:36;;;;;;;6.25;3.60;;;17.00;99.90;;;;;;5077969;28;20055;-66
2021/07/07 00:31:03;;;;;;;9.25;4.22;;;16.90;99.90;;;;;;5075900;28;20068;-66
2021/07/07 00:33:30;;;;;;;8.43;3.60;;;16.90;99.90;;;;;;5078046;28;20508;-65
2021/07/07 00:35:57;;;;;;;7.60;3.28;;;16.90;99.90;;;;;;5079102;28;20246;-65
2021/07/07 00:38:24;;;;;;;5.85;3.22;;;16.90;99.90;;;;;;5077016;28;20548;-65
2021/07/07 00:40:51;;;;;;;5.72;2.88;;;16.80;99.90;;;;;;5078754;28;20052;-64
2021/07/07 00:43:19;;;;;;;6.68;2.80;;;16.80;99.90;;;;;;5080347;28;20397;-64
2021/07/07 00:45:46;;;;;;;5.57;2.90;;;16.80;99.90;;;;;;5078235;28;20051;-64
2021/07/07 00:48:13;;;;;;;6.03;3.10;;;16.70;99.90;;;;;;5077118;28;20055;-64
2021/07/07 00:50:41;;;;;;;5.88;2.72;;;16.80;99.90;;;;;;5080197;28;20076;-65
2021/07/07 00:53:08;;;;;;;5.75;3.28;;;16.80;99.90;;;;;;5079905;28;20056;-67
2021/07/07 00:55:35;;;;;;;8.98;4.15;;;16.80;99.90;;;;;;5076933;28;20043;-64
2021/07/07 00:58:04;;;;;;;8.60;3.83;;;16.80;99.90;;;;;;5080272;28;20500;-65
2021/07/07 01:00:32;;;;;;;7.18;3.33;;;16.80;99.90;;;;;;5081429;28;20083;-64
2021/07/07 01:03:02;;;;;;;6.43;3.17;;;16.80;99.90;;;;;;5080632;28;20090;-64
2021/07/07 01:05:29;;;;;;;10.05;4.30;;;16.70;99.90;;;;;;5081545;28;20116;-65
2021/07/07 01:07:56;;;;;;;5.13;3.22;;;16.70;99.90;;;;;;5083283;28;20118;-65
2021/07/07 01:10:23;;;;;;;6.13;3.55;;;16.80;99.90;;;;;;5083665;28;20568;-66
2021/07/07 01:12:53;;;;;;;12.90;3.40;;;16.90;99.90;;;;;;5083700;28;20083;-64
2021/07/07 01:15:21;;;;;;;7.88;3.85;;;16.90;99.90;;;;;;5083555;28;20077;-64
2021/07/07 01:17:50;;;;;;;8.38;3.60;;;16.90;99.90;;;;;;5083224;28;20128;-64
2021/07/07 01:20:20;;;;;;;7.25;4.03;;;16.90;99.90;;;;;;5082427;28;20139;-65
2021/07/07 01:22:48;;;;;;;8.43;3.65;;;16.80;99.90;;;;;;5081181;28;20055;-64
2021/07/07 01:25:18;;;;;;;6.07;3.75;;;16.70;99.90;;;;;;5081817;28;20055;-66
2021/07/07 01:27:46;;;;;;;9.00;3.70;;;16.70;99.90;;;;;;5083863;28;20052;-64
2021/07/07 01:30:15;;;;;;;10.52;3.90;;;16.60;99.90;;;;;;5084470;28;20075;-66
2021/07/07 01:32:43;;;;;;;5.32;3.15;;;16.70;99.90;;;;;;5080043;28;20047;-65
2021/07/07 01:35:12;;;;;;;7.95;3.53;;;16.70;99.90;;;;;;5077632;28;20051;-65
2021/07/07 01:37:39;;;;;;;9.38;3.47;;;16.70;99.90;;;;;;5079095;28;20099;-66
2021/07/07 01:40:09;;;;;;;10.95;3.75;;;16.60;99.90;;;;;;5082279;28;20130;-64
2021/07/07 01:42:36;;;;;;;7.65;3.25;;;16.60;99.90;;;;;;5081176;28;20083;-64
2021/07/07 01:45:06;;;;;;;8.30;3.20;;;16.60;99.90;;;;;;5083231;28;20610;-65
2021/07/07 01:47:33;;;;;;;6.07;3.60;;;16.60;99.90;;;;;;5079425;28;20142;-65
2021/07/07 01:50:00;;;;;;;7.43;3.30;;;16.60;99.90;;;;;;5081581;28;20466;-65
2021/07/07 01:52:27;;;;;;;10.07;3.05;;;16.60;99.90;;;;;;5081545;28;20125;-65
2021/07/07 01:54:54;;;;;;;9.52;3.08;;;16.60;99.90;;;;;;5080021;28;20539;-66
2021/07/07 01:57:22;;;;;;;8.30;3.67;;;16.60;99.90;;;;;;5083615;28;20508;-65
2021/07/07 01:59:49;;;;;;;8.20;2.97;;;16.60;99.90;;;;;;5080554;28;20122;-64
2021/07/07 02:02:16;;;;;;;5.97;3.50;;;16.60;99.90;;;;;;5079243;28;20586;-65
2021/07/07 02:04:43;;;;;;;10.93;3.85;;;16.70;99.90;;;;;;5082636;28;20521;-64
2021/07/07 02:07:10;;;;;;;7.28;4.03;;;16.60;99.90;;;;;;5082032;28;20559;-67
2021/07/07 02:09:37;;;;;;;11.73;4.00;;;16.60;99.90;;;;;;5079125;28;20087;-65
2021/07/07 02:12:05;;;;;;;8.63;4.18;;;16.60;99.90;;;;;;5083271;28;20496;-65
2021/07/07 02:14:33;;;;;;;7.90;4.25;;;16.50;99.90;;;;;;5081734;28;20528;-65
2021/07/07 02:17:00;;;;;;;11.43;4.15;;;16.60;99.90;;;;;;5082576;28;20152;-65
2021/07/07 02:19:27;;;;;;;6.65;3.90;;;16.60;99.90;;;;;;5082564;28;20134;-65
2021/07/07 02:21:54;;;;;;;6.80;3.45;;;16.70;99.90;;;;;;5080861;28;20122;-67
2021/07/07 02:24:21;;;;;;;5.90;3.20;;;16.60;99.90;;;;;;5082098;28;20055;-65
2021/07/07 02:26:48;;;;;;;8.93;4.13;;;16.70;99.90;;;;;;5082697;28;20508;-65
2021/07/07 02:29:15;;;;;;;7.32;3.78;;;16.70;99.90;;;;;;5083218;28;20530;-65
2021/07/07 02:31:43;;;;;;;8.02;3.85;;;16.50;99.90;;;;;;5081275;28;20048;-64
2021/07/07 02:34:10;;;;;;;7.22;3.75;;;16.50;99.90;;;;;;5080791;28;20087;-64
2021/07/07 02:36:37;;;;;;;7.43;3.90;;;16.50;99.90;;;;;;5079663;28;20082;-65
2021/07/07 02:39:05;;;;;;;7.18;4.10;;;16.50;99.90;;;;;;5081092;28;20048;-65
2021/07/07 02:41:32;;;;;;;8.60;4.28;;;16.40;99.90;;;;;;5082234;28;20079;-66
2021/07/07 02:43:59;;;;;;;6.25;3.90;;;16.50;99.90;;;;;;5081657;28;20047;-65
2021/07/07 02:46:26;;;;;;;8.40;4.22;;;16.50;99.90;;;;;;5083405;28;20204;-67
2021/07/07 02:48:54;;;;;;;7.70;3.63;;;16.40;99.90;;;;;;5080286;28;20040;-65
2021/07/07 02:51:21;;;;;;;6.10;3.20;;;16.40;99.90;;;;;;5083562;28;20047;-66
2021/07/07 02:53:48;;;;;;;7.50;3.78;;;16.50;99.90;;;;;;5080228;28;20131;-66
2021/07/07 02:56:15;;;;;;;5.25;2.70;;;16.50;99.90;;;;;;5080068;28;20036;-67
2021/07/07 02:58:42;;;;;;;4.85;2.58;;;16.60;99.90;;;;;;5080607;28;20044;-65
2021/07/07 03:01:09;;;;;;;5.57;2.58;;;16.50;99.90;;;;;;5083515;28;20156;-65
2021/07/07 03:03:35;;;;;;;21.13;3.38;;;16.50;99.90;;;;;;5081221;28;20537;-65
2021/07/07 03:06:04;;;;;;;6.55;2.72;;;16.60;99.90;;;;;;5082110;28;20084;-65
2021/07/07 03:08:32;;;;;;;3.95;2.33;;;16.60;99.90;;;;;;5082307;28;20046;-67
2021/07/07 03:11:01;;;;;;;5.60;2.42;;;16.60;99.90;;;;;;5080409;28;20136;-66
2021/07/07 03:13:29;;;;;;;6.40;3.08;;;16.60;99.90;;;;;;5081152;28;20450;-64
2021/07/07 03:15:57;;;;;;;7.25;2.90;;;16.70;99.90;;;;;;5082237;28;20460;-65
2021/07/07 03:18:24;;;;;;;6.38;2.97;;;16.60;99.90;;;;;;5078840;28;20079;-66
2021/07/07 03:20:53;;;;;;;6.50;2.83;;;16.60;99.90;;;;;;5079446;28;20062;-65
2021/07/07 03:23:23;;;;;;;9.45;3.88;;;16.60;99.90;;;;;;5081108;28;20079;-64
2021/07/07 03:25:51;;;;;;;6.35;3.90;;;16.70;99.90;;;;;;5083130;28;20083;-64
2021/07/07 03:28:19;;;;;;;11.77;3.70;;;16.60;99.90;;;;;;5079626;28;20044;-64
2021/07/07 03:30:46;;;;;;;13.05;5.18;;;16.60;99.90;;;;;;5079320;28;20139;-65
2021/07/07 03:33:13;;;;;;;7.75;4.18;;;16.60;99.90;;;;;;5079975;28;20138;-67
2021/07/07 03:35:41;;;;;;;9.93;3.95;;;16.50;99.90;;;;;;5079740;28;20048;-66
2021/07/07 03:38:08;;;;;;;8.52;3.80;;;16.50;99.90;;;;;;5079487;28;20424;-65
2021/07/07 03:40:38;;;;;;;7.10;3.45;;;16.50;99.90;;;;;;5082212;28;20063;-66
2021/07/07 03:43:05;;;;;;;5.28;3.10;;;16.50;99.90;;;;;;5079718;28;20055;-64
2021/07/07 03:45:33;;;;;;;7.53;3.28;;;16.50;99.90;;;;;;5081057;28;20040;-64
2021/07/07 03:48:00;;;;;;;8.40;3.97;;;16.50;99.90;;;;;;5077623;28;20040;-65
2021/07/07 03:50:28;;;;;;;10.25;4.35;;;16.60;99.90;;;;;;5080422;28;20048;-64
2021/07/07 03:52:55;;;;;;;8.32;3.80;;;16.60;99.90;;;;;;5082608;28;20389;-64
2021/07/07 03:55:25;;;;;;;7.25;4.00;;;16.60;99.90;;;;;;5082412;28;20080;-64
2021/07/07 03:57:54;;;;;;;8.10;3.50;;;16.50;99.90;;;;;;5083396;28;20097;-64
2021/07/07 04:00:23;;;;;;;8.70;3.67;;;16.50;99.90;;;;;;5083190;28;20106;-65
2021/07/07 04:02:51;;;;;;;8.80;3.97;;;16.50;99.90;;;;;;5084055;28;20565;-64
2021/07/07 04:05:18;;;;;;;8.60;4.60;;;16.50;99.90;;;;;;5086421;28;20043;-65
2021/07/07 04:07:45;;;;;;;7.28;4.00;;;16.60;99.90;;;;;;5084277;28;20700;-64
2021/07/07 04:10:14;;;;;;;8.60;3.45;;;16.40;99.90;;;;;;5084837;28;20124;-64
2021/07/07 04:12:42;;;;;;;9.77;4.15;;;16.40;99.90;;;;;;5083709;28;20083;-65
2021/07/07 04:15:13;;;;;;;8.50;4.03;;;16.50;99.90;;;;;;5083074;28;20055;-65
2021/07/07 04:17:40;;;;;;;15.68;4.47;;;16.50;99.90;;;;;;5081459;28;20131;-64
2021/07/07 04:20:10;;;;;;;11.27;4.80;;;16.50;99.90;;;;;;5083510;28;20076;-65
2021/07/07 04:22:38;;;;;;;8.07;3.88;;;16.50;99.90;;;;;;5083252;28;20104;-66
2021/07/07 04:25:09;;;;;;;9.15;4.22;;;16.50;99.90;;;;;;5083415;28;20098;-64
2021/07/07 04:27:37;;;;;;;11.52;4.45;;;16.40;99.90;;;;;;5084442;28;20052;-64
2021/07/07 04:30:06;;;;;;;11.75;3.92;;;16.50;99.90;;;;;;5081253;28;20047;-64
2021/07/07 04:32:35;;;;;;;8.10;3.10;;;16.50;99.90;;;;;;5086736;28;20051;-64
2021/07/07 04:35:02;;;;;;;8.48;3.33;;;16.40;99.90;;;;;;5081623;28;20553;-64
2021/07/07 04:37:28;;;;;;;9.05;3.20;;;16.40;99.90;;;;;;5082591;28;20508;-64
2021/07/07 04:39:56;;;;;;;7.45;3.33;;;16.40;99.90;;;;;;5081680;28;20137;-66
2021/07/07 04:42:23;;;;;;;7.70;3.38;;;16.40;99.90;;;;;;5081554;28;20573;-66
2021/07/07 04:44:50;;;;;;;7.30;4.07;;;16.50;99.90;;;;;;5085950;28;20139;-64
2021/07/07 04:47:17;;;;;;;9.82;3.97;;;16.40;99.90;;;;;;5082452;28;20401;-63
2021/07/07 04:49:46;;;;;;;7.43;3.78;;;16.40;99.90;;;;;;5082828;28;20105;-66
2021/07/07 04:52:13;;;;;;;9.23;3.85;;;16.40;99.90;;;;;;5083032;28;20051;-64
2021/07/07 04:54:40;;;;;;;8.50;4.03;;;16.50;99.90;;;;;;5083193;28;20216;-64
2021/07/07 04:57:07;;;;;;;9.63;4.22;;;16.40;99.90;;;;;;5082543;28;20127;-64
2021/07/07 04:59:34;;;;;;;11.50;4.75;;;16.50;99.90;;;;;;5084910;28;20052;-65
2021/07/07 05:02:01;;;;;;;8.90;4.15;;;16.40;99.90;;;;;;5081226;28;20072;-65
2021/07/07 05:04:28;;;;;;;7.47;4.32;;;16.40;99.90;;;;;;5082393;28;20048;-66
2021/07/07 05:06:56;;;;;;;9.93;4.75;;;16.30;99.90;;;;;;5081860;28;20211;-64
2021/07/07 05:09:23;;;;;;;8.48;4.38;;;16.40;99.90;;;;;;5082522;28;20083;-66
2021/07/07 05:11:51;;;;;;;9.60;5.13;;;16.40;99.90;;;;;;5082694;28;20093;-64
2021/07/07 05:14:19;;;;;;;8.23;3.95;;;16.50;99.90;;;;;;5080168;28;20043;-65
2021/07/07 05:16:46;;;;;;;8.80;4.40;;;16.40;99.90;;;;;;5081988;28;20117;-65
2021/07/07 05:19:13;;;;;;;12.18;4.68;;;16.40;99.90;;;;;;5081357;28;20158;-64
2021/07/07 05:21:42;;;;;;;8.48;4.05;;;16.40;99.90;;;;;;5082011;28;20047;-65
2021/07/07 05:24:10;;;;;;;10.00;4.57;;;16.40;99.90;;;;;;5082535;28;20046;-66
2021/07/07 05:26:37;;;;;;;13.25;4.97;;;16.30;99.90;;;;;;5082042;28;20055;-63
2021/07/07 05:29:05;;;;;;;8.50;4.75;;;16.30;99.90;;;;;;5079443;28;20079;-66
2021/07/07 05:31:33;;;;;;;14.00;5.07;;;16.30;99.90;;;;;;5080856;28;20116;-64
2021/07/07 05:34:00;;;;;;;9.90;4.75;;;16.30;99.90;;;;;;5081738;28;20518;-64
2021/07/07 05:36:26;;;;;;;10.13;5.13;;;16.40;99.90;;;;;;5079309;28;20582;-64
2021/07/07 05:38:53;;;;;;;13.13;5.65;;;16.40;99.90;;;;;;5081531;28;20515;-66
2021/07/07 05:41:22;;;;;;;11.85;5.20;;;16.40;99.90;;;;;;5079901;28;20079;-65
2021/07/07 05:43:52;;;;;;;9.80;5.15;;;16.50;99.90;;;;;;5080640;28;20087;-65
2021/07/07 05:46:20;;;;;;;13.40;5.63;;;16.40;99.90;;;;;;5084176;28;20055;-65
2021/07/07 05:48:47;;;;;;;9.10;4.95;;;16.40;99.90;;;;;;5082993;28;20039;-65
2021/07/07 05:51:15;;;;;;;8.90;5.55;;;16.50;99.90;;;;;;5082367;28;20051;-65
2021/07/07 05:53:42;;;;;;;12.18;5.13;;;16.60;99.90;;;;;;5079511;28;20493;-67
2021/07/07 05:56:09;;;;;;;8.82;5.45;;;16.70;99.90;;;;;;5080071;28;20651;-65
2021/07/07 05:58:37;;;;;;;9.23;5.85;;;16.70;99.90;;;;;;5082018;28;20472;-65
2021/07/07 06:01:05;;;;;;;7.20;4.65;;;16.80;99.90;;;;;;5081306;28;20079;-64
2021/07/07 06:03:32;;;;;;;12.07;4.60;;;16.80;99.90;;;;;;5082695;28;20073;-65
2021/07/07 06:05:59;;;;;;;8.77;5.10;;;16.80;99.90;;;;;;5081704;28;20478;-65
2021/07/07 06:08:26;;;;;;;7.88;4.57;;;16.90;99.90;;;;;;5081746;28;20400;-65
2021/07/07 06:10:53;;;;;;;9.82;5.43;;;16.90;99.90;;;;;;5082247;28;20534;-67
2021/07/07 06:13:20;;;;;;;8.63;4.95;;;16.90;99.90;;;;;;5081481;28;20044;-66
2021/07/07 06:15:49;;;;;;;7.75;5.10;;;16.90;99.90;;;;;;5081138;28;20128;-65
2021/07/07 06:18:16;;;;;;;10.05;5.40;;;16.90;99.90;;;;;;5081330;28;20688;-67
2021/07/07 06:20:43;;;;;;;11.15;5.18;;;17.00;99.90;;;;;;5079101;28;20075;-65
2021/07/07 06:23:10;;;;;;;9.00;4.72;;;16.90;99.90;;;;;;5081442;28;20055;-67
2021/07/07 06:25:37;;;;;;;8.07;4.60;;;17.00;99.90;;;;;;5081603;28;20048;-64
2021/07/07 06:28:05;;;;;;;11.30;5.65;;;17.00;99.90;;;;;;5078279;28;20079;-66
2021/07/07 06:30:32;;;;;;;9.57;5.55;;;17.10;99.90;;;;;;5078563;28;20416;-64
2021/07/07 06:33:02;;;;;;;8.43;5.63;;;17.10;99.90;;;;;;5083152;28;20122;-64
2021/07/07 06:35:31;;;;;;;14.93;5.57;;;17.10;99.90;;;;;;5080543;28;20133;-63
2021/07/07 06:37:59;;;;;;;10.80;4.60;;;17.20;99.90;;;;;;5080741;28;20055;-64
2021/07/07 06:40:26;;;;;;;10.07;4.68;;;17.20;99.90;;;;;;5081509;28;20047;-64
2021/07/07 06:42:53;;;;;;;9.15;4.90;;;17.10;99.90;;;;;;5081051;28;20087;-64
2021/07/07 06:45:22;;;;;;;10.90;4.70;;;17.20;99.90;;;;;;5083474;28;20048;-64
2021/07/07 06:47:49;;;;;;;7.32;3.95;;;17.40;99.90;;;;;;5081596;28;20556;-64
2021/07/07 06:50:19;;;;;;;8.32;4.57;;;17.40;99.90;;;;;;5081645;28;20068;-64
2021/07/07 06:52:46;;;;;;;7.90;4.50;;;17.40;99.90;;;;;;5081166;28;20413;-64
2021/07/07 06:55:13;;;;;;;7.63;4.78;;;17.40;99.90;;;;;;5082946;28;20556;-64
2021/07/07 06:57:40;;;;;;;8.05;4.20;;;17.30;99.90;;;;;;5079294;28;20105;-64
2021/07/07 07:00:09;;;;;;;8.05;4.65;;;17.30;99.90;;;;;;5083225;28;20083;-64
2021/07/07 07:02:36;;;;;;;10.98;4.60;;;17.30;99.90;;;;;;5083433;28;20087;-64
2021/07/07 07:05:04;;;;;;;8.35;4.60;;;17.40;99.90;;;;;;5080879;28;20072;-64
2021/07/07 07:07:33;;;;;;;12.80;4.35;;;17.40;99.90;;;;;;5082234;28;20124;-64
2021/07/07 07:10:00;;;;;;;9.77;5.03;;;17.30;99.90;;;;;;5082132;28;20052;-65
2021/07/07 07:12:27;;;;;;;13.82;5.18;;;17.30;99.90;;;;;;5081070;28;20102;-64
2021/07/07 07:14:54;;;;;;;10.63;5.32;;;17.40;99.90;;;;;;5083589;28;20125;-64
2021/07/07 07:17:22;;;;;;;10.15;5.35;;;17.40;99.90;;;;;;5083077;28;20561;-64
2021/07/07 07:19:49;;;;;;;9.00;5.05;;;17.30;99.90;;;;;;5082845;28;20103;-63
2021/07/07 07:22:17;;;;;;;9.52;5.00;;;17.20;99.90;;;;;;5079888;28;20083;-64
2021/07/07 07:24:46;;;;;;;10.90;5.22;;;17.20;99.90;;;;;;5080121;28;20544;-64
2021/07/07 07:27:13;;;;;;;9.15;5.20;;;17.20;99.90;;;;;;5082562;28;20043;-64
2021/07/07 07:29:42;;;;;;;10.25;5.70;;;17.40;99.90;;;;;;5081190;28;20133;-64
2021/07/07 07:32:09;;;;;;;12.70;4.95;;;17.40;99.90;;;;;;5083416;28;20062;-64
2021/07/07 07:34:36;;;;;;;10.98;5.47;;;17.30;99.90;;;;;;5085135;28;20480;-64
2021/07/07 07:37:05;;;;;;;12.57;5.28;;;17.40;99.90;;;;;;5086139;28;20082;-64
2021/07/07 07:39:40;;;;;;;10.43;4.88;;;17.40;99.90;;;;;;5083077;28;20051;-64
2021/07/07 07:42:13;;;;;;;9.65;4.85;;;17.50;99.90;;;;;;5086222;28;20117;-64
2021/07/07 07:44:40;;;;;;;12.70;5.40;;;17.50;99.90;;;;;;5082904;28;20135;-64
2021/07/07 07:47:07;;;;;;;18.45;4.72;;;17.40;99.90;;;;;;5084786;28;20579;-64
2021/07/07 07:49:34;;;;;;;9.82;4.35;;;17.60;99.90;;;;;;5084491;28;20044;-64
2021/07/07 07:52:01;;;;;;;7.80;4.78;;;17.90;99.90;;;;;;5083101;28;20488;-64
2021/07/07 07:54:29;;;;;;;9.55;4.82;;;17.90;99.90;;;;;;5085281;28;20048;-64
2021/07/07 07:56:56;;;;;;;8.48;4.38;;;17.80;99.90;;;;;;5085855;28;20056;-64
2021/07/07 07:59:24;;;;;;;7.93;3.97;;;17.80;99.90;;;;;;5083070;28;20073;-65
2021/07/07 08:01:51;;;;;;;7.43;4.35;;;17.70;99.90;;;;;;5085805;28;20492;-64
2021/07/07 08:04:19;;;;;;;9.20;4.38;;;17.90;99.90;;;;;;5084432;28;20214;-64
2021/07/07 08:06:46;;;;;;;12.75;4.07;;;18.00;99.90;;;;;;5083052;28;20055;-64
2021/07/07 08:09:13;;;;;;;7.97;4.53;;;18.10;99.90;;;;;;5084479;28;20569;-65
2021/07/07 08:11:42;;;;;;;9.13;3.97;;;18.10;99.90;;;;;;5085445;28;20133;-64
2021/07/07 08:14:10;;;;;;;10.32;3.50;;;18.20;99.90;;;;;;5083476;28;20224;-64
2021/07/07 08:16:38;;;;;;;8.13;3.42;;;18.30;99.90;;;;;;5082858;28;20040;-65
2021/07/07 08:19:05;;;;;;;9.93;4.13;;;18.40;99.90;;;;;;5084962;28;20076;-65
2021/07/07 08:21:32;;;;;;;6.78;3.38;;;18.50;99.90;;;;;;5084310;28;20051;-64
2021/07/07 08:24:02;;;;;;;10.88;3.40;;;18.50;99.90;;;;;;5083461;28;20132;-65
2021/07/07 08:26:29;;;;;;;13.60;3.95;;;18.60;99.90;;;;;;5086369;28;20070;-65
2021/07/07 08:29:01;;;;;;;7.90;3.85;;;18.50;99.90;;;;;;5083306;28;20128;-65
2021/07/07 08:31:28;;;;;;;7.03;3.22;;;18.40;99.90;;;;;;5085438;28;20525;-65
2021/07/07 08:33:56;;;;;;;10.45;3.72;;;18.40;99.90;;;;;;5086078;28;20095;-64
2021/07/07 08:36:26;;;;;;;11.00;3.33;;;18.50;99.90;;;;;;5082947;28;20056;-64
2021/07/07 08:38:54;;;;;;;7.20;3.22;;;18.40;99.90;;;;;;5083434;28;20116;-65
2021/07/07 08:41:21;;;;;;;6.70;3.20;;;18.40;99.90;;;;;;5082118;28;20408;-65
2021/07/07 08:43:48;;;;;;;5.40;2.95;;;18.40;99.90;;;;;;5084239;28;20133;-65
2021/07/07 08:46:15;;;;;;;8.32;2.47;;;18.40;99.90;;;;;;5084794;28;20477;-65
2021/07/07 08:48:42;;;;;;;7.07;2.90;;;18.40;99.90;;;;;;5085631;28;20136;-65
2021/07/07 08:51:11;;;;;;;7.25;3.50;;;18.40;99.90;;;;;;5084059;28;20079;-65
2021/07/07 08:53:40;;;;;;;5.95;3.35;;;18.40;99.90;;;;;;5080484;28;20101;-65
2021/07/07 08:56:07;;;;;;;5.55;3.35;;;18.40;99.90;;;;;;5083972;28;20048;-65
2021/07/07 08:58:34;;;;;;;6.55;3.70;;;18.40;99.90;;;;;;5083138;28;20047;-64
2021/07/07 09:01:02;;;;;;;6.95;2.85;;;18.40;99.90;;;;;;5083204;28;20044;-64
2021/07/07 09:03:30;;;;;;;5.35;3.13;;;18.30;99.90;;;;;;5084904;28;20664;-65
2021/07/07 09:05:58;;;;;;;6.50;3.80;;;18.30;99.90;;;;;;5084646;28;20098;-65
2021/07/07 09:08:29;;;;;;;6.82;3.25;;;18.50;99.90;;;;;;5082539;28;20103;-65
2021/07/07 09:10:58;;;;;;;11.05;3.63;;;18.60;99.90;;;;;;5080026;28;20044;-65
2021/07/07 09:13:25;;;;;;;5.43;2.85;;;18.50;99.90;;;;;;5083683;28;20048;-65
2021/07/07 09:15:53;;;;;;;7.28;3.30;;;18.60;99.90;;;;;;5082745;28;20048;-65
2021/07/07 09:18:22;;;;;;;8.30;3.13;;;18.70;99.90;;;;;;5082227;28;20043;-65
2021/07/07 09:20:49;;;;;;;7.95;3.05;;;18.70;99.90;;;;;;5083752;28;20096;-65
2021/07/07 09:23:20;;;;;;;9.23;3.42;;;18.70;99.90;;;;;;5081740;28;20155;-65
2021/07/07 09:25:58;;;;;;;7.93;3.40;;;18.70;99.90;;;;;;5081467;28;20135;-65
2021/07/07 09:28:26;;;;;;;6.40;3.35;;;18.70;99.90;;;;;;5082418;28;20101;-65
2021/07/07 09:30:55;;;;;;;5.45;3.10;;;18.60;99.90;;;;;;5080428;28;20044;-65
2021/07/07 09:33:23;;;;;;;7.85;3.38;;;18.60;99.90;;;;;;5082146;28;20504;-65
2021/07/07 09:35:51;;;;;;;7.75;2.60;;;18.60;99.90;;;;;;5081495;28;20036;-65
2021/07/07 09:38:18;;;;;;;5.85;2.60;;;18.60;99.90;;;;;;5083882;28;20051;-65
2021/07/07 09:40:46;;;;;;;6.85;2.60;;;18.50;99.90;;;;;;5082253;28;20044;-65
2021/07/07 09:43:15;;;;;;;9.32;3.05;;;18.40;99.90;;;;;;5082690;28;20154;-65
2021/07/07 09:45:46;;;;;;;6.97;2.95;;;18.40;99.90;;;;;;5084143;28;20044;-65
2021/07/07 09:48:15;;;;;;;6.07;3.22;;;18.40;99.90;;;;;;5079937;28;20113;-65
2021/07/07 09:50:44;;;;;;;6.43;3.03;;;18.60;99.90;;;;;;5075637;28;20048;-65
2021/07/07 09:53:12;;;;;;;5.93;3.17;;;18.50;99.90;;;;;;5079260;28;20151;-65
2021/07/07 09:55:40;;;;;;;7.85;3.17;;;18.70;99.90;;;;;;5081587;28;21202;-65
2021/07/07 09:58:08;;;;;;;7.43;3.10;;;18.80;99.90;;;;;;5080595;28;20048;-65
2021/07/07 10:00:39;;;;;;;5.72;2.83;;;18.80;99.90;;;;;;5081615;28;20572;-65
2021/07/07 10:03:08;;;;;;;8.77;3.08;;;18.90;99.90;;;;;;5079172;28;20138;-66
2021/07/07 10:05:42;;;;;;;5.07;3.17;;;18.90;99.90;;;;;;5077933;28;20149;-66
2021/07/07 10:08:10;;;;;;;10.13;2.97;;;19.10;99.90;;;;;;5078943;28;20051;-65
2021/07/07 10:10:38;;;;;;;8.18;2.83;;;19.30;99.90;;;;;;5081379;28;20075;-66
2021/07/07 10:13:06;;;;;;;8.00;3.60;;;19.50;99.90;;;;;;5079224;28;20075;-66
2021/07/07 10:15:34;;;;;;;6.65;2.40;;;19.50;99.90;;;;;;5080162;28;20056;-66
2021/07/07 10:18:03;;;;;;;4.65;1.88;;;19.70;99.90;;;;;;5079226;28;20047;-66
2021/07/07 10:20:30;;;;;;;4.55;2.30;;;19.80;99.90;;;;;;5079967;28;20052;-66
2021/07/07 10:22:58;;;;;;;4.55;2.17;;;19.90;99.90;;;;;;5078111;28;20441;-65
2021/07/07 10:25:28;;;;;;;5.80;2.13;;;19.90;99.90;;;;;;5078453;28;20079;-66
2021/07/07 10:27:57;;;;;;;4.85;2.22;;;19.80;99.90;;;;;;5076023;28;20044;-66
2021/07/07 10:30:57;;;;;;;6.30;2.63;;;19.80;99.90;;;;;;5075686;28;20140;-66
2021/07/07 10:33:27;;;;;;;7.97;3.28;;;19.80;99.90;;;;;;5078314;28;20120;-66
2021/07/07 10:36:14;;;;;;;5.13;2.30;;;19.90;99.90;;;;;;5080706;28;20793;-66
2021/07/07 10:38:48;;;;;;;;;;;19.80;99.90;;;;;;5079596;28;20843;-66
2021/07/07 10:41:15;;;;;;;6.68;2.78;;;19.80;99.90;;;;;;5078634;28;20404;-66
2021/07/07 10:43:47;;;;;;;5.38;2.70;;;19.70;99.90;;;;;;5080867;28;20086;-66
2021/07/07 10:46:35;;;;;;;6.22;2.80;;;19.80;99.90;;;;;;5079324;28;20040;-66
2021/07/07 10:49:19;;;;;;;7.80;2.63;;;19.90;99.90;;;;;;5071926;28;20052;-67
2021/07/07 10:51:47;;;;;;;6.00;2.10;;;20.40;99.90;;;;;;5074248;28;20347;-67
2021/07/07 10:54:21;;;;;;;6.90;2.58;;;20.60;99.90;;;;;;5074966;28;20553;-66
2021/07/07 10:56:49;;;;;;;7.00;2.60;;;20.90;99.90;;;;;;5076410;28;20078;-67
2021/07/07 10:59:32;;;;;;;7.03;2.72;;;21.10;99.90;;;;;;5076335;28;20080;-67
2021/07/07 11:02:00;;;;;;;5.32;2.65;;;21.20;99.90;;;;;;5080561;28;20101;-67
2021/07/07 11:04:36;;;;;;;4.75;2.35;;;21.30;99.90;;;;;;5079988;28;20055;-66
2021/07/07 11:07:39;;;;;;;5.25;2.88;;;21.60;99.90;;;;;;5085487;28;20059;-67
2021/07/07 11:10:10;;;;;;;8.73;2.10;;;21.60;99.90;;;;;;5081176;28;20060;-67
2021/07/07 11:13:17;;;;;;;5.50;2.00;;;22.10;99.90;;;;;;5086016;28;20055;-66
2021/07/07 11:15:49;;;;;;;3.88;1.95;;;22.60;99.90;;;;;;5083530;28;20133;-67
2021/07/07 11:18:21;;;;;;;4.07;1.90;;;22.70;99.90;;;;;;5085509;28;20052;-66
2021/07/07 11:21:07;;;;;;;5.03;2.03;;;22.60;99.90;;;;;;5082982;28;20128;-67
2021/07/07 11:23:35;;;;;;;5.78;2.40;;;22.60;99.90;;;;;;5083751;28;20064;-67
2021/07/07 11:26:03;;;;;;;8.43;2.33;;;22.60;99.90;;;;;;5083184;28;20575;-67
2021/07/07 11:28:30;;;;;;;3.88;1.92;;;22.30;99.90;;;;;;5084230;28;20094;-67
2021/07/07 11:30:57;;;;;;;4.15;1.90;;;22.40;99.90;;;;;;5082628;28;20405;-67
2021/07/07 11:33:25;;;;;;;5.57;2.28;;;22.50;99.90;;;;;;5085379;28;20078;-67
2021/07/07 11:35:52;;;;;;;4.90;2.22;;;22.40;99.90;;;;;;5084924;28;20044;-67
2021/07/07 11:38:25;;;;;;;4.78;2.33;;;22.40;99.90;;;;;;5083468;28;20105;-67
2021/07/07 11:40:53;;;;;;;5.97;2.42;;;22.30;99.90;;;;;;5082681;28;20055;-67
2021/07/07 11:43:24;;;;;;;4.50;2.33;;;22.50;99.90;;;;;;5084884;28;20074;-67
2021/07/07 11:45:56;;;;;;;4.38;2.28;;;22.50;99.90;;;;;;5084332;28;20564;-67
2021/07/07 11:48:28;;;;;;;5.78;2.40;;;22.60;99.90;;;;;;5080943;28;20130;-67
2021/07/07 11:50:57;;;;;;;5.00;2.50;;;22.60;99.90;;;;;;5081111;28;20048;-67
2021/07/07 11:53:35;;;;;;;5.68;2.38;;;22.50;99.90;;;;;;5084804;28;20492;-67
2021/07/07 11:56:04;;;;;;;3.33;2.08;;;22.50;99.90;;;;;;5082240;28;20095;-67
2021/07/07 11:58:34;;;;;;;4.18;2.13;;;22.40;99.90;;;;;;5082295;28;20070;-67
2021/07/07 12:01:03;;;;;;;4.38;2.25;;;22.00;99.90;;;;;;5082787;28;20048;-67
2021/07/07 12:03:30;;;;;;;5.57;2.30;;;21.90;99.90;;;;;;5081987;28;20143;-67
2021/07/07 12:06:01;;;;;;;6.95;2.42;;;21.60;99.90;;;;;;5081432;28;20040;-67
2021/07/07 12:08:32;;;;;;;3.97;2.10;;;21.40;99.90;;;;;;5082696;28;20146;-68
2021/07/07 12:11:14;;;;;;;3.90;2.10;;;21.70;99.90;;;;;;5081376;28;20047;-68
2021/07/07 12:13:43;;;;;;;5.78;2.20;;;21.70;99.90;;;;;;5081923;28;20088;-69
2021/07/07 12:16:24;;;;;;;3.97;2.55;;;21.70;99.90;;;;;;5081080;28;20132;-68
2021/07/07 12:18:53;;;;;;;3.25;2.15;;;21.90;99.90;;;;;;5079118;28;20060;-68
2021/07/07 12:21:41;;;;;;;7.60;2.38;;;21.90;99.90;;;;;;5082494;28;20047;-68
2021/07/07 12:24:12;;;;;;;4.80;2.42;;;21.90;99.90;;;;;;5082271;28;20059;-68
2021/07/07 12:26:40;;;;;;;4.05;2.58;;;21.90;99.90;;;;;;5082333;28;20093;-69
2021/07/07 12:29:10;;;;;;;4.22;2.50;;;21.90;99.90;;;;;;5078347;28;20089;-68
2021/07/07 12:31:39;;;;;;;4.75;2.58;;;22.00;99.90;;;;;;5079786;28;20048;-68
2021/07/07 12:34:07;;;;;;;4.63;2.55;;;22.10;99.90;;;;;;5081577;28;20052;-68
2021/07/07 12:36:42;;;;;;;4.05;2.35;;;22.50;99.90;;;;;;5084501;27;20135;-68
2021/07/07 12:39:19;;;;;;;6.57;2.80;;;23.00;99.90;;;;;;5087097;28;20054;-68
2021/07/07 12:41:49;;;;;;;4.20;2.33;;;23.00;99.90;;;;;;5081937;28;20063;-68
2021/07/07 12:44:25;;;;;;;6.05;2.55;;;23.00;99.90;;;;;;5082616;28;20056;-68
2021/07/07 12:46:55;;;;;;;6.85;3.22;;;22.90;99.90;;;;;;5083033;28;20084;-68
2021/07/07 12:49:40;;;;;;;4.63;2.45;;;22.80;99.90;;;;;;5080330;28;20048;-67
2021/07/07 12:52:34;;;;;;;5.20;2.33;;;22.90;99.90;;;;;;5080696;28;20047;-68
2021/07/07 12:55:08;;;;;;;4.43;2.22;;;22.70;99.90;;;;;;5044088;28;20055;-68